createdAt,value
2023-04-21T00:02:18.720Z,8.41
2023-04-21T00:07:16.218Z,8.38
2023-04-21T00:12:14.821Z,8.37
2023-04-21T00:17:11.258Z,8.22
2023-04-21T00:22:12.126Z,8.28
2023-04-21T00:27:08.590Z,8.31
2023-04-21T00:32:08.324Z,8.30
2023-04-21T00:37:04.770Z,8.22
2023-04-21T00:42:01.570Z,8.30
2023-04-21T00:46:58.093Z,8.15
2023-04-21T00:51:54.976Z,8.23
2023-04-21T00:56:51.452Z,8.26
2023-04-21T01:01:48.085Z,8.21
2023-04-21T01:12:11.799Z,8.10
2023-04-21T01:17:08.673Z,8.14
2023-04-21T01:22:06.436Z,8.14
2023-04-21T01:27:03.345Z,8.10
2023-04-21T01:32:04.829Z,8.09
2023-04-21T01:37:01.520Z,8.10
2023-04-21T01:41:57.962Z,8.04
2023-04-21T01:46:55.552Z,8.06
2023-04-21T01:51:52.006Z,8.06
2023-04-21T01:56:48.570Z,8.02
2023-04-21T02:01:45.220Z,7.96
2023-04-21T02:06:41.740Z,7.95
2023-04-21T02:11:38.189Z,8.02
2023-04-21T02:16:34.671Z,8.03
2023-04-21T02:21:32.324Z,8.04
2023-04-21T02:26:28.817Z,8.02
2023-04-21T02:31:25.457Z,8.01
2023-04-21T02:36:22.002Z,7.92
2023-04-21T02:41:18.527Z,7.98
2023-04-21T02:46:15.103Z,7.96
2023-04-21T02:51:13.306Z,7.98
2023-04-21T02:56:09.907Z,7.98
2023-04-21T03:01:06.475Z,7.98
2023-04-21T03:06:04.676Z,7.98
2023-04-21T03:11:02.189Z,7.98
2023-04-21T03:15:58.665Z,8.00
2023-04-21T03:20:59.872Z,8.03
2023-04-21T03:25:56.428Z,8.06
2023-04-21T03:30:52.850Z,8.03
2023-04-21T03:35:49.279Z,8.02
2023-04-21T03:40:45.784Z,8.01
2023-04-21T03:45:42.289Z,8.00
2023-04-21T03:50:38.960Z,8.02
2023-04-21T03:55:35.397Z,8.00
2023-04-21T04:00:31.884Z,7.92
2023-04-21T04:05:28.384Z,7.98
2023-04-21T04:10:24.814Z,7.99
2023-04-21T04:15:21.333Z,8.04
2023-04-21T04:20:17.953Z,7.99
2023-04-21T04:25:16.976Z,7.96
2023-04-21T04:30:16.064Z,8.02
2023-04-21T04:59:44.836Z,8.22
2023-04-21T05:04:44.880Z,8.27
2023-04-21T08:40:09.819Z,13.93
2023-04-21T08:45:21.648Z,13.87
2023-04-21T08:50:53.089Z,14.08
2023-04-21T08:56:11.377Z,14.15
2023-04-21T09:01:19.679Z,14.12
2023-04-21T09:06:21.768Z,14.31
2023-04-21T09:11:38.764Z,14.35
2023-04-21T09:16:38.559Z,14.39
2023-04-21T09:21:42.985Z,14.57
2023-04-21T09:26:43.572Z,14.61
2023-04-21T09:31:44.422Z,14.85
2023-04-21T09:36:45.507Z,14.86
2023-04-21T09:41:44.265Z,15.01
2023-04-21T09:46:48.984Z,15.12
2023-04-21T09:56:49.616Z,15.30
2023-04-21T10:01:50.182Z,15.40
2023-04-21T10:06:48.123Z,15.50
2023-04-21T10:11:44.628Z,15.59
2023-04-21T10:16:42.052Z,15.71
2023-04-21T10:21:38.592Z,15.84
2023-04-21T10:26:35.339Z,15.98
2023-04-21T10:31:34.612Z,16.05
2023-04-21T10:36:34.829Z,16.13
2023-04-21T10:41:33.953Z,16.23
2023-04-21T10:46:35.513Z,16.31
2023-04-21T10:51:33.054Z,16.42
2023-04-21T10:56:29.643Z,16.45
2023-04-21T11:01:26.161Z,16.56
2023-04-21T11:06:22.679Z,16.70
2023-04-21T11:11:26.740Z,16.78
2023-04-21T11:16:23.196Z,16.87
2023-04-21T11:21:22.966Z,16.92
2023-04-21T11:26:20.982Z,17.02
2023-04-21T11:31:17.573Z,17.07
2023-04-21T11:36:15.174Z,17.16
2023-04-21T11:41:20.809Z,17.25
2023-04-21T11:46:46.903Z,17.33
2023-04-21T11:51:51.314Z,17.30
2023-04-21T11:56:51.554Z,17.44
2023-04-21T12:01:55.425Z,17.53
2023-04-21T12:07:09.967Z,17.74
2023-04-21T12:12:06.441Z,17.79
2023-04-21T12:17:02.892Z,17.89
2023-04-21T12:22:04.028Z,17.82
2023-04-21T12:27:02.077Z,18.02
2023-04-21T12:32:00.894Z,18.07
2023-04-21T12:36:57.535Z,18.15
2023-04-21T12:41:54.063Z,18.30
2023-04-21T12:46:52.662Z,18.38
2023-04-21T12:51:49.508Z,18.50
2023-04-21T13:02:17.493Z,18.59
2023-04-21T13:07:18.386Z,18.68
2023-04-21T13:12:26.483Z,18.72
2023-04-21T13:17:26.203Z,18.75
2023-04-21T13:22:37.643Z,18.74
2023-04-21T13:27:38.563Z,18.66
2023-04-21T13:32:55.511Z,18.58
2023-04-21T13:37:54.327Z,18.77
2023-04-21T13:42:53.063Z,18.77
2023-04-21T13:47:51.783Z,18.80
2023-04-21T13:52:49.029Z,18.84
2023-04-21T13:57:45.867Z,18.83
2023-04-21T14:02:42.898Z,18.82
2023-04-21T14:08:26.639Z,18.79
2023-04-21T14:13:35.746Z,18.82
2023-04-21T14:18:34.291Z,18.93
2023-04-21T14:23:30.781Z,18.99
2023-04-21T14:28:30.877Z,19.03
2023-04-21T14:33:35.233Z,19.03
2023-04-21T14:38:33.662Z,19.04
2023-04-21T14:43:30.253Z,19.06
2023-04-21T14:48:27.193Z,19.09
2023-04-21T14:53:25.665Z,19.07
2023-04-21T14:58:31.076Z,18.97
2023-04-21T15:03:35.212Z,18.91
2023-04-21T15:08:31.869Z,19.09
2023-04-21T15:13:28.401Z,19.08
2023-04-21T15:18:25.008Z,19.06
2023-04-21T15:23:21.468Z,18.97
2023-04-21T15:28:17.917Z,18.95
2023-04-21T15:33:14.728Z,18.96
2023-04-21T15:38:11.463Z,18.97
2023-04-21T15:43:08.071Z,18.97
2023-04-21T15:48:04.611Z,18.89
2023-04-21T15:53:04.450Z,18.94
2023-04-21T15:58:01.059Z,18.91
2023-04-21T16:02:58.603Z,18.90
2023-04-21T16:07:55.452Z,18.86
2023-04-21T16:12:52.265Z,18.83
2023-04-21T16:17:49.309Z,18.79
2023-04-21T16:22:46.590Z,18.81
2023-04-21T16:27:44.183Z,18.75
2023-04-21T16:32:40.801Z,18.71
2023-04-21T16:37:40.435Z,18.65
2023-04-21T16:42:37.477Z,18.63
2023-04-21T16:47:41.729Z,18.57
2023-04-21T16:52:38.714Z,18.55
2023-04-21T16:57:35.243Z,18.51
2023-04-21T17:02:31.815Z,18.43
2023-04-21T17:07:28.543Z,18.41
2023-04-21T17:12:25.066Z,18.38
2023-04-21T17:17:21.512Z,18.35
2023-04-21T17:22:18.000Z,18.31
2023-04-21T17:27:14.453Z,18.23
2023-04-21T17:32:10.980Z,18.19
2023-04-21T17:37:07.464Z,18.15
2023-04-21T17:42:04.824Z,18.09
2023-04-21T17:47:02.103Z,17.96
2023-04-21T17:51:58.598Z,17.91
2023-04-21T17:56:55.223Z,17.83
2023-04-21T18:02:02.274Z,17.58
2023-04-21T18:07:03.155Z,17.47
2023-04-21T18:12:00.999Z,17.34
2023-04-21T18:16:58.102Z,17.38
2023-04-21T18:21:57.333Z,17.20
2023-04-21T18:26:56.791Z,17.02
2023-04-21T18:32:00.538Z,16.95
2023-04-21T18:36:57.353Z,16.87
2023-04-21T18:41:56.600Z,16.76
2023-04-21T18:46:53.889Z,16.61
2023-04-21T18:51:53.401Z,16.48
2023-04-21T18:56:49.972Z,16.42
2023-04-21T19:01:46.685Z,16.33
2023-04-21T19:06:43.330Z,16.15
2023-04-21T19:11:39.938Z,16.07
2023-04-21T19:16:36.659Z,16.00
2023-04-21T19:21:40.551Z,15.99
2023-04-21T19:26:39.235Z,15.87
2023-04-21T19:31:35.790Z,15.67
2023-04-21T19:36:32.640Z,15.75
2023-04-21T19:41:29.213Z,15.61
2023-04-21T19:46:25.724Z,15.53
2023-04-21T19:51:25.070Z,15.45
2023-04-21T19:56:21.620Z,15.37
2023-04-21T20:01:18.009Z,15.25
2023-04-21T20:06:14.602Z,15.14
2023-04-21T20:11:11.340Z,15.09
2023-04-21T20:16:07.897Z,14.97
2023-04-21T20:21:04.419Z,14.90
2023-04-21T20:26:01.250Z,14.78
2023-04-21T20:30:57.823Z,14.69
2023-04-21T20:35:54.108Z,14.65
2023-04-21T20:40:53.700Z,14.56
2023-04-21T20:45:50.725Z,14.45
2023-04-21T20:50:49.810Z,14.40
2023-04-21T20:55:51.961Z,14.20
2023-04-21T21:00:48.577Z,14.19
2023-04-21T21:05:44.961Z,14.21
2023-04-21T21:10:41.491Z,14.03
2023-04-21T21:15:37.955Z,14.06
2023-04-21T21:20:34.509Z,13.83
2023-04-21T21:25:30.868Z,13.92
2023-04-21T21:30:29.705Z,13.73
2023-04-21T21:35:29.218Z,13.64
2023-04-21T21:40:28.472Z,13.70
2023-04-21T21:45:25.009Z,13.49
2023-04-21T21:50:21.591Z,13.47
2023-04-21T21:55:20.572Z,13.49
2023-04-21T22:00:20.570Z,13.35
2023-04-21T22:05:17.579Z,13.36
2023-04-21T22:10:14.072Z,13.28
2023-04-21T22:15:13.918Z,13.18
2023-04-21T22:20:12.061Z,13.20
2023-04-21T22:25:09.006Z,13.18
2023-04-21T22:30:06.151Z,13.08
2023-04-21T22:35:03.290Z,13.07
2023-04-21T22:40:00.638Z,12.99
2023-04-21T22:44:57.134Z,12.99
2023-04-21T22:49:54.102Z,12.88
2023-04-21T22:54:50.677Z,12.87
2023-04-21T22:59:47.149Z,12.81
2023-04-21T23:04:43.594Z,12.77
2023-04-21T23:09:40.363Z,12.70
2023-04-21T23:14:37.034Z,12.68
2023-04-21T23:19:33.509Z,12.61
2023-04-21T23:24:30.021Z,12.51
2023-04-21T23:29:28.859Z,12.47
2023-04-21T23:34:25.560Z,12.38
2023-04-21T23:39:22.486Z,12.45
2023-04-21T23:44:19.125Z,12.31
2023-04-21T23:49:19.791Z,12.32
2023-04-21T23:54:19.517Z,12.17
2023-04-21T23:59:18.472Z,12.17
